createdAt,value
2019-02-24T00:00:48.061Z,52.83
2019-02-24T00:01:47.991Z,53.33
2019-02-24T00:02:48.006Z,53.77
2019-02-24T00:03:47.972Z,52.83
2019-02-24T00:04:47.959Z,52.91
2019-02-24T00:05:47.955Z,52.80
2019-02-24T00:06:47.968Z,52.80
2019-02-24T00:07:47.942Z,53.22
2019-02-24T00:08:47.927Z,53.03
2019-02-24T00:09:47.924Z,52.91
2019-02-24T00:10:47.907Z,53.01
2019-02-24T00:11:47.900Z,53.53
2019-02-24T00:12:47.914Z,53.14
2019-02-24T00:13:47.870Z,53.45
2019-02-24T00:14:47.865Z,53.45
2019-02-24T00:15:47.847Z,53.97
2019-02-24T00:16:47.854Z,52.93
2019-02-24T00:17:47.895Z,53.35
2019-02-24T00:18:47.835Z,53.25
2019-02-24T00:19:47.878Z,53.35
2019-02-24T00:20:47.814Z,53.77
2019-02-24T00:21:47.807Z,53.97
2019-02-24T00:22:47.793Z,53.56
2019-02-24T00:23:47.819Z,53.79
2019-02-24T00:24:47.799Z,53.58
2019-02-24T00:25:47.767Z,54.21
2019-02-24T00:26:47.733Z,54.62
2019-02-24T00:27:47.727Z,54.62
2019-02-24T00:28:47.744Z,54.62
2019-02-24T00:29:47.725Z,53.58
2019-02-24T00:30:47.721Z,53.69
2019-02-24T00:31:47.685Z,54.93
2019-02-24T00:32:47.686Z,55.24
2019-02-24T00:33:47.682Z,54.41
2019-02-24T00:34:47.652Z,54.93
2019-02-24T00:35:47.631Z,55.04
2019-02-24T00:36:47.661Z,55.14
2019-02-24T00:37:47.616Z,54.72
2019-02-24T00:38:47.634Z,54.83
2019-02-24T00:39:47.618Z,55.45
2019-02-24T00:40:47.584Z,55.45
2019-02-24T00:41:47.575Z,54.83
2019-02-24T00:42:47.599Z,55.56
2019-02-24T00:43:47.598Z,55.35
2019-02-24T00:44:47.586Z,55.35
2019-02-24T00:45:47.544Z,54.93
2019-02-24T00:46:47.518Z,54.83
2019-02-24T00:47:47.509Z,54.83
2019-02-24T00:48:47.538Z,54.83
2019-02-24T00:49:47.482Z,55.04
2019-02-24T00:50:47.487Z,54.62
2019-02-24T00:51:47.519Z,55.14
2019-02-24T00:52:47.463Z,55.04
2019-02-24T00:53:47.469Z,54.62
2019-02-24T00:54:47.465Z,53.69
2019-02-24T00:55:47.439Z,54.52
2019-02-24T00:56:47.407Z,54.60
2019-02-24T00:57:47.425Z,53.89
2019-02-24T00:58:47.389Z,53.89
2019-02-24T00:59:47.386Z,53.79
2019-02-24T01:00:47.428Z,53.66
2019-02-24T01:01:47.395Z,53.79
2019-02-24T01:02:47.359Z,54.21
2019-02-24T01:03:47.338Z,53.69
2019-02-24T01:04:47.322Z,54.10
2019-02-24T01:05:47.311Z,53.58
2019-02-24T01:06:47.318Z,53.89
2019-02-24T01:07:47.287Z,53.58
2019-02-24T01:08:47.281Z,53.69
2019-02-24T01:09:47.280Z,53.58
2019-02-24T01:10:47.256Z,53.69
2019-02-24T01:11:47.285Z,54.44
2019-02-24T01:12:47.273Z,54.62
2019-02-24T01:13:47.228Z,53.71
2019-02-24T01:14:47.215Z,54.02
2019-02-24T01:15:47.207Z,54.13
2019-02-24T01:16:47.212Z,54.64
2019-02-24T01:17:47.183Z,54.13
2019-02-24T01:18:47.191Z,54.96
2019-02-24T01:19:47.174Z,54.02
2019-02-24T01:20:47.155Z,53.61
2019-02-24T01:21:47.162Z,53.71
2019-02-24T01:22:47.140Z,54.02
2019-02-24T01:23:47.119Z,53.58
2019-02-24T01:24:47.186Z,53.71
2019-02-24T01:25:47.109Z,53.89
2019-02-24T01:26:47.111Z,53.61
2019-02-24T01:27:47.081Z,54.96
2019-02-24T01:28:47.071Z,55.16
2019-02-24T01:29:47.129Z,55.16
2019-02-24T01:30:47.068Z,55.16
2019-02-24T01:31:47.062Z,54.52
2019-02-24T01:32:47.028Z,54.62
2019-02-24T01:33:47.012Z,54.64
2019-02-24T01:34:46.993Z,53.92
2019-02-24T01:35:46.992Z,54.00
2019-02-24T01:36:47.019Z,54.00
2019-02-24T01:37:46.967Z,53.69
2019-02-24T01:38:47.009Z,52.85
2019-02-24T01:39:46.978Z,53.58
2019-02-24T01:40:46.942Z,52.85
2019-02-24T01:41:46.924Z,53.56
2019-02-24T01:42:46.958Z,52.75
2019-02-24T01:43:46.896Z,53.16
2019-02-24T01:44:46.903Z,53.27
2019-02-24T01:45:46.895Z,53.38
2019-02-24T01:46:46.882Z,53.14
2019-02-24T01:47:46.869Z,52.83
2019-02-24T01:48:46.864Z,52.95
2019-02-24T01:49:46.843Z,53.48
2019-02-24T01:50:46.835Z,53.03
2019-02-24T01:51:46.889Z,53.06
2019-02-24T01:52:46.845Z,52.95
2019-02-24T01:53:46.814Z,52.83
2019-02-24T01:54:46.807Z,52.93
2019-02-24T01:55:46.762Z,52.93
2019-02-24T01:56:46.763Z,53.14
2019-02-24T01:57:46.749Z,52.93
2019-02-24T01:58:46.775Z,53.14
2019-02-24T01:59:46.746Z,53.14
2019-02-24T02:00:46.742Z,53.16
2019-02-24T02:01:46.702Z,52.75
2019-02-24T02:02:46.700Z,52.62
2019-02-24T02:03:46.679Z,53.27
2019-02-24T02:04:46.720Z,52.93
2019-02-24T02:05:46.659Z,53.27
2019-02-24T02:06:46.673Z,53.16
2019-02-24T02:07:46.636Z,53.06
2019-02-24T02:08:46.644Z,53.16
2019-02-24T02:09:46.621Z,52.95
2019-02-24T02:10:46.604Z,53.06
2019-02-24T02:11:46.595Z,52.93
2019-02-24T02:12:46.629Z,53.16
2019-02-24T02:13:46.569Z,52.75
2019-02-24T02:14:46.572Z,53.38
2019-02-24T02:15:46.564Z,52.85
2019-02-24T02:16:46.542Z,52.85
2019-02-24T02:17:46.540Z,52.54
2019-02-24T02:18:46.535Z,53.03
2019-02-24T02:19:46.513Z,52.85
2019-02-24T02:20:46.494Z,52.95
2019-02-24T02:21:46.486Z,53.16
2019-02-24T02:22:46.502Z,53.06
2019-02-24T02:23:46.481Z,52.95
2019-02-24T02:24:46.504Z,53.27
2019-02-24T02:25:46.497Z,53.16
2019-02-24T02:26:46.476Z,52.54
2019-02-24T02:27:46.425Z,51.89
2019-02-24T02:28:46.412Z,52.00
2019-02-24T02:29:46.397Z,52.10
2019-02-24T02:30:46.448Z,52.00
2019-02-24T02:31:46.427Z,52.00
2019-02-24T02:32:46.401Z,52.02
2019-02-24T02:33:46.376Z,51.89
2019-02-24T02:34:46.351Z,52.00
2019-02-24T02:35:46.379Z,52.02
2019-02-24T02:36:46.372Z,51.92
2019-02-24T02:37:46.306Z,51.58
2019-02-24T02:38:46.314Z,52.33
2019-02-24T02:39:46.297Z,52.75
2019-02-24T02:40:46.307Z,52.75
2019-02-24T02:41:46.267Z,52.54
2019-02-24T02:42:46.273Z,51.92
2019-02-24T02:43:46.253Z,52.83
2019-02-24T02:44:46.228Z,52.85
2019-02-24T02:45:46.239Z,53.16
2019-02-24T02:46:46.214Z,53.27
2019-02-24T02:47:46.201Z,52.75
2019-02-24T02:48:46.215Z,53.08
2019-02-24T02:49:46.181Z,53.92
2019-02-24T02:50:46.163Z,53.40
2019-02-24T02:51:46.156Z,53.92
2019-02-24T02:52:46.147Z,53.40
2019-02-24T02:53:46.139Z,53.50
2019-02-24T02:54:46.150Z,52.44
2019-02-24T02:55:46.126Z,53.08
2019-02-24T02:56:46.147Z,53.92
2019-02-24T02:57:46.096Z,53.08
2019-02-24T02:58:53.843Z,53.19
2019-02-24T02:59:47.120Z,52.87
2019-02-24T03:00:46.056Z,54.02
2019-02-24T03:01:46.070Z,54.23
2019-02-24T03:02:46.046Z,53.71
2019-02-24T03:03:46.032Z,54.23
2019-02-24T03:04:46.009Z,53.74
2019-02-24T03:05:46.025Z,54.02
2019-02-24T03:06:46.039Z,54.05
2019-02-24T03:07:45.985Z,53.63
2019-02-24T03:08:45.965Z,54.15
2019-02-24T03:09:45.995Z,53.74
2019-02-24T03:10:45.954Z,54.57
2019-02-24T03:11:45.957Z,54.67
2019-02-24T03:12:45.924Z,53.84
2019-02-24T03:13:45.954Z,53.84
2019-02-24T03:14:53.513Z,54.15
2019-02-24T03:15:45.903Z,54.05
2019-02-24T03:16:45.883Z,53.94
2019-02-24T03:17:45.888Z,53.94
2019-02-24T03:18:45.897Z,52.90
2019-02-24T03:19:45.850Z,53.11
2019-02-24T03:20:45.844Z,53.00
2019-02-24T03:21:45.825Z,53.42
2019-02-24T03:22:45.816Z,53.42
2019-02-24T03:23:45.830Z,53.11
2019-02-24T03:24:45.793Z,53.84
2019-02-24T03:25:45.782Z,52.80
2019-02-24T03:26:45.781Z,53.84
2019-02-24T03:27:45.755Z,53.74
2019-02-24T03:28:45.749Z,53.53
2019-02-24T03:29:45.758Z,53.42
2019-02-24T03:30:45.741Z,52.80
2019-02-24T03:31:45.719Z,53.11
2019-02-24T03:32:45.723Z,53.00
2019-02-24T03:33:45.711Z,52.80
2019-02-24T03:34:45.707Z,53.11
2019-02-24T03:35:45.696Z,52.82
2019-02-24T03:36:45.670Z,53.03
2019-02-24T03:37:45.647Z,53.13
2019-02-24T03:38:45.694Z,52.72
2019-02-24T03:39:45.653Z,52.90
2019-02-24T03:40:45.623Z,52.17
2019-02-24T03:41:45.631Z,51.97
2019-02-24T03:42:45.654Z,52.07
2019-02-24T03:43:45.603Z,51.86
2019-02-24T03:44:45.604Z,51.86
2019-02-24T03:45:45.563Z,51.54
2019-02-24T03:46:45.553Z,51.86
2019-02-24T03:47:45.553Z,51.86
2019-02-24T03:48:45.535Z,52.07
2019-02-24T03:49:45.516Z,50.71
2019-02-24T03:50:45.509Z,51.53
2019-02-24T03:51:45.493Z,50.69
2019-02-24T03:52:45.519Z,50.59
2019-02-24T03:53:45.555Z,50.48
2019-02-24T03:54:45.468Z,50.38
2019-02-24T03:55:45.450Z,50.69
2019-02-24T03:56:45.453Z,50.59
2019-02-24T03:57:45.458Z,50.38
2019-02-24T03:58:45.438Z,50.59
2019-02-24T03:59:45.434Z,50.38
2019-02-24T04:00:45.456Z,50.59
2019-02-24T04:01:45.392Z,50.69
2019-02-24T04:02:45.373Z,50.17
2019-02-24T04:03:45.373Z,50.27
2019-02-24T04:04:45.360Z,50.59
2019-02-24T04:05:45.378Z,50.79
2019-02-24T04:06:45.383Z,50.17
2019-02-24T04:07:45.340Z,50.38
2019-02-24T04:08:45.314Z,50.38
2019-02-24T04:09:45.299Z,50.69
2019-02-24T04:10:45.341Z,50.59
2019-02-24T04:11:45.295Z,50.30
2019-02-24T04:12:45.284Z,50.40
2019-02-24T04:13:45.269Z,50.51
2019-02-24T04:14:45.251Z,50.40
2019-02-24T04:15:45.274Z,51.23
2019-02-24T04:16:45.234Z,50.61
2019-02-24T04:17:45.228Z,50.61
2019-02-24T04:18:45.200Z,51.15
2019-02-24T04:19:45.201Z,50.74
2019-02-24T04:20:45.186Z,50.82
2019-02-24T04:21:45.186Z,50.53
2019-02-24T04:22:45.173Z,50.82
2019-02-24T04:23:45.172Z,50.71
2019-02-24T04:24:45.150Z,50.95
2019-02-24T04:25:45.138Z,50.82
2019-02-24T04:26:45.144Z,51.05
2019-02-24T04:27:45.114Z,51.05
2019-02-24T04:28:45.100Z,50.84
2019-02-24T04:29:45.113Z,51.15
2019-02-24T04:30:45.140Z,50.84
2019-02-24T04:31:45.087Z,51.15
2019-02-24T04:32:45.046Z,50.84
2019-02-24T04:33:45.038Z,50.63
2019-02-24T04:34:45.070Z,51.05
2019-02-24T04:35:45.061Z,50.63
2019-02-24T04:36:45.025Z,50.43
2019-02-24T04:37:45.012Z,50.95
2019-02-24T04:38:44.984Z,50.74
2019-02-24T04:39:44.979Z,50.84
2019-02-24T04:40:44.989Z,51.15
2019-02-24T04:41:44.971Z,51.57
2019-02-24T04:42:44.983Z,51.46
2019-02-24T04:43:44.949Z,51.78
2019-02-24T04:44:44.919Z,50.45
2019-02-24T04:45:44.924Z,50.95
2019-02-24T04:46:44.907Z,50.74
2019-02-24T04:47:44.929Z,50.43
2019-02-24T04:48:44.884Z,50.43
2019-02-24T04:49:44.867Z,51.07
2019-02-24T04:50:44.867Z,50.53
2019-02-24T04:51:44.842Z,51.39
2019-02-24T04:52:44.830Z,51.28
2019-02-24T04:53:44.859Z,51.90
2019-02-24T04:54:44.858Z,51.80
2019-02-24T04:55:44.808Z,51.18
2019-02-24T04:56:44.792Z,50.76
2019-02-24T04:57:44.778Z,50.76
2019-02-24T04:58:44.793Z,50.45
2019-02-24T04:59:44.778Z,50.65
2019-02-24T05:00:44.748Z,50.65
2019-02-24T05:01:44.740Z,51.07
2019-02-24T05:02:44.739Z,51.07
2019-02-24T05:03:44.714Z,51.07
2019-02-24T05:04:44.717Z,50.45
2019-02-24T05:05:44.717Z,51.28
2019-02-24T05:06:44.682Z,52.01
2019-02-24T05:07:44.683Z,51.39
2019-02-24T05:08:44.701Z,51.80
2019-02-24T05:09:44.665Z,51.70
2019-02-24T05:10:44.639Z,51.28
2019-02-24T05:11:44.672Z,51.70
2019-02-24T05:12:44.641Z,51.82
2019-02-24T05:13:44.629Z,52.14
2019-02-24T05:14:44.602Z,51.93
2019-02-24T05:15:44.587Z,51.82
2019-02-24T05:16:44.579Z,51.72
2019-02-24T05:17:44.599Z,51.93
2019-02-24T05:18:44.567Z,51.41
2019-02-24T05:19:52.177Z,51.31
2019-02-24T05:20:44.533Z,52.35
2019-02-24T05:21:44.588Z,51.82
2019-02-24T05:22:53.747Z,51.93
2019-02-24T05:23:44.503Z,52.14
2019-02-24T05:24:44.489Z,52.03
2019-02-24T05:25:44.476Z,52.14
2019-02-24T05:26:44.476Z,52.35
2019-02-24T05:27:53.074Z,52.66
2019-02-24T05:28:44.466Z,51.82
2019-02-24T05:29:46.131Z,51.72
2019-02-24T05:30:44.451Z,52.03
2019-02-24T05:31:44.414Z,51.93
2019-02-24T05:32:44.406Z,51.62
2019-02-24T05:33:44.393Z,51.75
2019-02-24T05:34:44.399Z,52.03
2019-02-24T05:35:44.371Z,52.35
2019-02-24T05:36:44.357Z,52.35
2019-02-24T05:37:44.361Z,52.35
2019-02-24T05:38:44.336Z,51.31
2019-02-24T05:39:44.328Z,51.51
2019-02-24T05:40:44.356Z,51.93
2019-02-24T05:41:44.349Z,52.14
2019-02-24T05:42:44.297Z,51.95
2019-02-24T05:43:44.304Z,52.37
2019-02-24T05:44:44.282Z,51.95
2019-02-24T05:45:44.305Z,52.06
2019-02-24T05:46:44.276Z,51.64
2019-02-24T05:47:44.235Z,51.85
2019-02-24T05:48:44.248Z,51.64
2019-02-24T05:49:44.221Z,51.95
2019-02-24T05:50:44.220Z,51.75
2019-02-24T05:51:44.201Z,52.08
2019-02-24T05:52:44.195Z,52.08
2019-02-24T05:53:44.169Z,52.29
2019-02-24T05:54:44.214Z,53.02
2019-02-24T05:55:44.182Z,53.75
2019-02-24T05:56:44.140Z,55.76
2019-02-24T05:57:44.129Z,54.82
2019-02-24T05:58:44.186Z,55.87
2019-02-24T05:59:44.114Z,54.85
2019-02-24T06:00:44.094Z,56.73
2019-02-24T06:01:44.091Z,53.91
2019-02-24T06:02:44.071Z,52.86
2019-02-24T06:03:44.087Z,52.86
2019-02-24T06:04:44.097Z,52.13
2019-02-24T06:05:44.060Z,52.31
2019-02-24T06:06:44.042Z,55.34
2019-02-24T06:07:44.055Z,52.97
2019-02-24T06:08:44.021Z,56.93
2019-02-24T06:09:44.042Z,55.58
2019-02-24T06:10:44.011Z,59.05
2019-02-24T06:11:43.975Z,59.37
2019-02-24T06:12:43.961Z,60.52
2019-02-24T06:13:44.018Z,59.58
2019-02-24T06:14:43.955Z,61.30
2019-02-24T06:15:43.950Z,58.87
2019-02-24T06:16:43.942Z,61.10
2019-02-24T06:17:43.935Z,56.36
2019-02-24T06:18:43.907Z,57.95
2019-02-24T06:19:43.921Z,55.44
2019-02-24T06:20:43.880Z,54.06
2019-02-24T06:21:43.871Z,54.35
2019-02-24T06:22:43.876Z,53.30
2019-02-24T06:23:43.849Z,53.59
2019-02-24T06:24:43.834Z,53.28
2019-02-24T06:25:43.831Z,53.59
2019-02-24T06:26:43.808Z,53.28
2019-02-24T06:27:43.828Z,53.28
2019-02-24T06:28:43.821Z,53.57
2019-02-24T06:29:43.773Z,53.28
2019-02-24T06:30:43.766Z,53.28
2019-02-24T06:31:43.754Z,53.49
2019-02-24T06:32:43.754Z,53.49
2019-02-24T06:33:43.739Z,54.22
2019-02-24T06:34:43.757Z,54.01
2019-02-24T06:35:43.707Z,53.80
2019-02-24T06:36:43.695Z,54.82
2019-02-24T06:37:43.687Z,55.26
2019-02-24T06:38:43.683Z,55.26
2019-02-24T06:39:43.673Z,55.05
2019-02-24T06:40:43.706Z,55.68
2019-02-24T06:41:43.675Z,55.26
2019-02-24T06:42:43.630Z,55.47
2019-02-24T06:43:43.625Z,55.58
2019-02-24T06:44:43.617Z,55.68
2019-02-24T06:45:43.612Z,54.74
2019-02-24T06:46:43.633Z,55.05
2019-02-24T06:47:43.593Z,54.01
2019-02-24T06:48:43.572Z,54.22
2019-02-24T06:49:43.564Z,53.88
2019-02-24T06:50:43.546Z,54.19
2019-02-24T06:51:43.574Z,53.78
2019-02-24T06:52:43.562Z,54.30
2019-02-24T06:53:43.520Z,53.25
2019-02-24T06:54:43.498Z,53.99
2019-02-24T06:55:43.488Z,53.05
2019-02-24T06:56:43.487Z,53.05
2019-02-24T06:57:43.480Z,52.94
2019-02-24T06:58:43.474Z,52.94
2019-02-24T06:59:43.444Z,53.12
2019-02-24T07:00:43.467Z,53.12
2019-02-24T07:01:43.463Z,53.02
2019-02-24T07:02:43.423Z,52.92
2019-02-24T07:03:43.408Z,52.48
2019-02-24T07:04:43.428Z,52.06
2019-02-24T07:05:43.378Z,52.06
2019-02-24T07:06:43.395Z,51.72
2019-02-24T07:07:43.372Z,51.82
2019-02-24T07:08:43.350Z,51.31
2019-02-24T07:09:43.339Z,50.78
2019-02-24T07:10:43.386Z,50.57
2019-02-24T07:11:43.365Z,50.45
2019-02-24T07:12:43.318Z,50.45
2019-02-24T07:13:43.299Z,50.45
2019-02-24T07:14:43.296Z,50.65
2019-02-24T07:15:43.275Z,49.49
2019-02-24T07:16:43.298Z,49.38
2019-02-24T07:17:43.252Z,49.38
2019-02-24T07:18:43.242Z,49.38
2019-02-24T07:19:43.269Z,49.49
2019-02-24T07:20:43.237Z,49.57
2019-02-24T07:21:43.206Z,49.15
2019-02-24T07:22:43.215Z,48.53
2019-02-24T07:23:43.190Z,48.84
2019-02-24T07:24:43.172Z,48.43
2019-02-24T07:25:43.188Z,48.71
2019-02-24T07:26:43.182Z,48.40
2019-02-24T07:27:43.159Z,49.02
2019-02-24T07:28:43.158Z,49.44
2019-02-24T07:29:43.145Z,49.02
2019-02-24T07:30:43.105Z,49.23
2019-02-24T07:31:43.098Z,49.33
2019-02-24T07:32:43.099Z,48.30
2019-02-24T07:33:43.111Z,49.02
2019-02-24T07:34:43.090Z,48.92
2019-02-24T07:35:43.073Z,49.02
2019-02-24T07:36:43.083Z,49.02
2019-02-24T07:37:43.047Z,49.21
2019-02-24T07:38:43.030Z,48.92
2019-02-24T07:39:43.017Z,49.32
2019-02-24T07:40:43.023Z,49.23
2019-02-24T07:41:42.991Z,49.01
2019-02-24T07:42:42.978Z,49.21
2019-02-24T07:43:43.001Z,49.11
2019-02-24T07:44:42.989Z,49.40
2019-02-24T07:45:42.947Z,48.77
2019-02-24T07:46:42.984Z,47.75
2019-02-24T07:47:42.956Z,48.15
2019-02-24T07:48:42.973Z,47.52
2019-02-24T07:49:42.903Z,47.63
2019-02-24T07:50:42.897Z,46.90
2019-02-24T07:51:42.886Z,46.88
2019-02-24T07:52:42.931Z,45.63
2019-02-24T07:53:42.877Z,44.90
2019-02-24T07:54:42.862Z,45.63
2019-02-24T07:55:42.863Z,45.21
2019-02-24T07:56:42.844Z,44.68
2019-02-24T07:57:42.833Z,45.51
2019-02-24T07:58:42.829Z,44.68
2019-02-24T07:59:42.838Z,44.76
2019-02-24T08:00:42.796Z,44.86
2019-02-24T08:01:42.805Z,44.55
2019-02-24T08:02:42.776Z,44.45
2019-02-24T08:03:42.765Z,44.34
2019-02-24T08:04:42.768Z,44.03
2019-02-24T08:05:42.751Z,44.12
2019-02-24T08:06:42.760Z,43.80
2019-02-24T08:07:42.752Z,44.12
2019-02-24T08:08:42.712Z,44.22
2019-02-24T08:09:42.750Z,44.12
2019-02-24T08:10:42.732Z,44.32
2019-02-24T08:11:42.716Z,44.20
2019-02-24T08:12:42.666Z,44.74
2019-02-24T08:13:44.042Z,44.51
2019-02-24T08:14:42.648Z,44.72
2019-02-24T08:15:42.647Z,43.99
2019-02-24T08:16:42.663Z,44.93
2019-02-24T08:17:42.648Z,45.03
2019-02-24T08:18:49.287Z,45.14
2019-02-24T08:19:43.593Z,45.01
2019-02-24T08:20:42.600Z,44.70
2019-02-24T08:21:42.575Z,45.11
2019-02-24T08:22:42.625Z,45.42
2019-02-24T08:23:42.567Z,44.70
2019-02-24T08:24:42.556Z,44.28
2019-02-24T08:25:42.569Z,44.07
2019-02-24T08:26:42.540Z,44.70
2019-02-24T08:27:42.560Z,44.80
2019-02-24T08:28:42.544Z,44.18
2019-02-24T08:29:42.497Z,45.21
2019-02-24T08:30:42.539Z,44.59
2019-02-24T08:31:42.481Z,45.09
2019-02-24T08:32:42.475Z,44.78
2019-02-24T08:33:42.454Z,45.20
2019-02-24T08:34:42.474Z,44.78
2019-02-24T08:35:42.430Z,43.74
2019-02-24T08:36:42.421Z,44.65
2019-02-24T08:37:42.412Z,44.96
2019-02-24T08:38:42.407Z,43.83
2019-02-24T08:39:42.389Z,44.01
2019-02-24T08:40:42.398Z,43.49
2019-02-24T08:41:42.377Z,42.98
2019-02-24T08:42:42.363Z,42.77
2019-02-24T08:43:42.347Z,42.65
2019-02-24T08:44:42.369Z,42.03
2019-02-24T08:45:42.355Z,40.99
2019-02-24T08:46:42.367Z,40.99
2019-02-24T08:47:42.334Z,41.08
2019-02-24T08:48:42.311Z,40.66
2019-02-24T08:49:42.280Z,40.45
2019-02-24T08:50:42.350Z,40.87
2019-02-24T08:51:42.296Z,40.97
2019-02-24T08:52:42.311Z,40.45
2019-02-24T08:53:42.240Z,41.37
2019-02-24T08:54:42.248Z,40.02
2019-02-24T08:55:42.233Z,40.00
2019-02-24T08:56:42.227Z,38.87
2019-02-24T08:57:42.246Z,38.85
2019-02-24T08:58:42.208Z,38.23
2019-02-24T08:59:42.203Z,38.35
2019-02-24T09:00:50.515Z,37.19
2019-02-24T09:01:43.148Z,35.85
2019-02-24T09:02:42.162Z,36.78
2019-02-24T09:03:42.131Z,37.82
2019-02-24T09:04:42.145Z,37.51
2019-02-24T09:05:42.114Z,37.19
2019-02-24T09:06:42.109Z,36.98
2019-02-24T09:07:42.079Z,36.96
2019-02-24T09:08:42.095Z,36.44
2019-02-24T09:09:42.063Z,37.37
2019-02-24T09:10:42.080Z,37.37
2019-02-24T09:11:42.037Z,35.60
2019-02-24T09:12:42.029Z,36.11
2019-02-24T09:13:42.012Z,35.93
2019-02-24T09:14:42.031Z,35.80
2019-02-24T09:15:41.985Z,35.68
2019-02-24T09:16:41.996Z,35.68
2019-02-24T09:17:41.974Z,34.46
2019-02-24T09:18:41.965Z,34.55
2019-02-24T09:19:41.949Z,34.24
2019-02-24T09:20:41.943Z,34.45
2019-02-24T09:21:41.929Z,33.51
2019-02-24T09:22:41.962Z,34.33
2019-02-24T09:23:41.909Z,33.09
2019-02-24T09:24:41.907Z,34.43
2019-02-24T09:25:41.874Z,33.92
2019-02-24T09:26:41.899Z,35.15
2019-02-24T09:27:41.857Z,33.19
2019-02-24T09:28:41.866Z,33.90
2019-02-24T09:29:41.831Z,35.03
2019-02-24T09:30:41.834Z,32.66
2019-02-24T09:31:41.851Z,33.07
2019-02-24T09:32:41.832Z,33.90
2019-02-24T09:33:41.797Z,32.66
2019-02-24T09:34:41.801Z,32.76
2019-02-24T09:35:41.776Z,33.16
2019-02-24T09:36:41.758Z,32.22
2019-02-24T09:37:41.749Z,32.72
2019-02-24T09:38:41.742Z,33.03
2019-02-24T09:39:41.735Z,31.68
2019-02-24T09:40:51.308Z,32.06
2019-02-24T09:41:41.707Z,31.00
2019-02-24T09:42:41.685Z,29.74
2019-02-24T09:43:49.272Z,29.93
2019-02-24T09:44:41.662Z,29.08
2019-02-24T09:45:41.646Z,28.25
2019-02-24T09:46:41.656Z,27.31
2019-02-24T09:47:46.870Z,28.43
2019-02-24T09:48:42.630Z,26.87
2019-02-24T09:49:41.604Z,27.18
2019-02-24T09:50:41.589Z,27.46
2019-02-24T09:51:41.599Z,27.45
2019-02-24T09:52:41.590Z,27.89
2019-02-24T09:53:41.561Z,28.30
2019-02-24T09:54:41.540Z,27.59
2019-02-24T09:55:41.542Z,27.48
2019-02-24T09:56:41.543Z,27.17
2019-02-24T09:57:41.523Z,26.07
2019-02-24T09:58:41.852Z,26.25
2019-02-24T09:59:41.484Z,26.87
2019-02-24T10:00:41.488Z,27.17
2019-02-24T10:01:41.493Z,26.64
2019-02-24T10:02:41.466Z,26.93
2019-02-24T10:03:41.444Z,26.51
2019-02-24T10:04:41.460Z,25.79
2019-02-24T10:05:41.429Z,25.80
2019-02-24T10:06:41.440Z,25.07
2019-02-24T10:07:41.444Z,24.68
2019-02-24T10:08:41.385Z,25.52
2019-02-24T10:09:41.386Z,25.00
2019-02-24T10:10:41.380Z,25.09
2019-02-24T10:11:41.361Z,24.68
2019-02-24T10:12:41.359Z,24.37
2019-02-24T10:13:41.358Z,24.77
2019-02-24T10:14:41.322Z,24.45
2019-02-24T10:15:41.330Z,24.15
2019-02-24T10:16:41.327Z,25.09
2019-02-24T10:17:41.292Z,23.06
2019-02-24T10:18:41.282Z,26.10
2019-02-24T10:19:41.281Z,24.25
2019-02-24T10:20:41.258Z,22.41
2019-02-24T10:21:41.239Z,22.74
2019-02-24T10:22:41.289Z,22.82
2019-02-24T10:23:41.237Z,23.54
2019-02-24T10:24:41.238Z,22.73
2019-02-24T10:25:41.228Z,24.35
2019-02-24T10:26:41.195Z,22.94
2019-02-24T10:27:41.184Z,22.94
2019-02-24T10:28:41.252Z,24.25
2019-02-24T10:29:41.154Z,23.92
2019-02-24T10:30:41.164Z,21.89
2019-02-24T10:31:41.135Z,22.71
2019-02-24T10:32:41.148Z,22.71
2019-02-24T10:33:41.166Z,22.29
2019-02-24T10:34:41.132Z,23.32
2019-02-24T10:35:41.105Z,23.11
2019-02-24T10:36:41.086Z,22.99
2019-02-24T10:37:41.081Z,23.29
2019-02-24T10:38:41.052Z,22.06
2019-02-24T10:39:41.074Z,21.78
2019-02-24T10:40:41.353Z,22.71
2019-02-24T10:41:41.034Z,22.61
2019-02-24T10:42:41.009Z,23.08
2019-02-24T10:43:41.000Z,22.17
2019-02-24T10:44:41.005Z,23.49
2019-02-24T10:45:40.993Z,22.17
2019-02-24T10:46:40.985Z,22.47
2019-02-24T10:47:40.966Z,21.56
2019-02-24T10:48:40.986Z,21.55
2019-02-24T10:49:40.952Z,20.44
2019-02-24T10:50:40.922Z,21.37
2019-02-24T10:51:40.901Z,21.07
2019-02-24T10:52:40.972Z,21.68
2019-02-24T10:53:40.943Z,21.89
2019-02-24T10:54:40.881Z,21.97
2019-02-24T10:55:40.862Z,21.37
2019-02-24T10:56:40.847Z,21.69
2019-02-24T10:57:40.830Z,21.72
2019-02-24T10:58:40.874Z,21.64
2019-02-24T10:59:40.833Z,21.66
2019-02-24T11:00:40.830Z,22.39
2019-02-24T11:01:40.786Z,23.13
2019-02-24T11:02:40.780Z,24.24
2019-02-24T11:03:40.786Z,24.66
2019-02-24T11:04:40.770Z,24.55
2019-02-24T11:05:40.754Z,23.85
2019-02-24T11:06:40.736Z,23.13
2019-02-24T11:07:40.745Z,24.27
2019-02-24T11:08:40.730Z,23.35
2019-02-24T11:09:40.733Z,24.37
2019-02-24T11:10:40.699Z,24.48
2019-02-24T11:11:40.681Z,24.27
2019-02-24T11:12:40.697Z,24.79
2019-02-24T11:13:40.684Z,24.68
2019-02-24T11:14:40.648Z,24.79
2019-02-24T11:15:40.665Z,25.20
2019-02-24T11:16:40.633Z,23.25
2019-02-24T11:17:40.623Z,23.86
2019-02-24T11:18:40.602Z,24.58
2019-02-24T11:19:40.597Z,24.79
2019-02-24T11:20:40.572Z,24.79
2019-02-24T11:21:40.559Z,24.79
2019-02-24T11:22:40.589Z,23.45
2019-02-24T11:23:40.599Z,24.37
2019-02-24T11:24:40.526Z,23.24
2019-02-24T11:25:40.515Z,22.72
2019-02-24T11:26:40.534Z,23.54
2019-02-24T11:27:40.527Z,23.13
2019-02-24T11:28:40.504Z,23.24
2019-02-24T11:29:40.473Z,23.54
2019-02-24T11:30:40.454Z,23.54
2019-02-24T11:31:40.494Z,24.35
2019-02-24T11:32:40.468Z,23.22
2019-02-24T11:33:40.444Z,24.05
2019-02-24T11:34:40.442Z,24.46
2019-02-24T11:35:40.403Z,24.26
2019-02-24T11:36:40.428Z,24.66
2019-02-24T11:37:40.408Z,24.87
2019-02-24T11:38:40.380Z,23.44
2019-02-24T11:39:40.352Z,22.92
2019-02-24T11:40:40.365Z,23.52
2019-02-24T11:41:40.411Z,24.54
2019-02-24T11:42:40.375Z,23.22
2019-02-24T11:43:40.304Z,24.54
2019-02-24T11:44:40.296Z,22.90
2019-02-24T11:45:40.300Z,23.63
2019-02-24T11:46:40.311Z,24.34
2019-02-24T11:47:40.278Z,23.32
2019-02-24T11:48:40.255Z,23.63
2019-02-24T11:49:40.252Z,22.71
2019-02-24T11:50:40.220Z,23.52
2019-02-24T11:51:40.210Z,23.94
2019-02-24T11:52:40.269Z,23.13
2019-02-24T11:53:40.216Z,23.52
2019-02-24T11:54:40.221Z,23.63
2019-02-24T11:55:40.167Z,24.44
2019-02-24T11:56:40.194Z,24.54
2019-02-24T11:57:40.160Z,24.85
2019-02-24T11:58:40.156Z,27.00
2019-02-24T11:59:40.125Z,24.02
2019-02-24T12:00:40.107Z,24.54
2019-02-24T12:01:47.330Z,24.54
2019-02-24T12:02:41.851Z,23.52
2019-02-24T12:03:40.083Z,22.91
2019-02-24T12:04:40.106Z,22.71
2019-02-24T12:05:40.095Z,22.50
2019-02-24T12:06:40.041Z,24.34
2019-02-24T12:07:40.044Z,25.04
2019-02-24T12:08:40.023Z,23.51
2019-02-24T12:09:40.016Z,23.51
2019-02-24T12:10:40.007Z,23.60
2019-02-24T12:11:40.002Z,24.73
2019-02-24T12:12:39.971Z,23.19
2019-02-24T12:13:39.965Z,23.31
2019-02-24T12:14:39.952Z,22.69
2019-02-24T12:15:39.935Z,23.21
2019-02-24T12:16:39.966Z,21.47
2019-02-24T12:17:39.956Z,21.77
2019-02-24T12:18:39.899Z,22.08
2019-02-24T12:19:39.951Z,21.98
2019-02-24T12:20:39.898Z,22.18
2019-02-24T12:21:39.862Z,22.59
2019-02-24T12:22:39.870Z,23.21
2019-02-24T12:23:39.833Z,22.18
2019-02-24T12:24:39.822Z,21.77
2019-02-24T12:25:39.849Z,22.69
2019-02-24T12:26:39.872Z,23.21
2019-02-24T12:27:39.810Z,21.77
2019-02-24T12:28:39.832Z,21.67
2019-02-24T12:29:39.771Z,22.99
2019-02-24T12:30:39.766Z,21.95
2019-02-24T12:31:39.779Z,21.97
2019-02-24T12:32:39.748Z,21.77
2019-02-24T12:33:39.730Z,21.97
2019-02-24T12:34:39.723Z,21.66
2019-02-24T12:35:39.717Z,22.17
2019-02-24T12:36:39.706Z,20.74
2019-02-24T12:37:39.684Z,21.77
2019-02-24T12:38:39.668Z,20.95
2019-02-24T12:39:39.713Z,21.97
2019-02-24T12:40:39.675Z,22.28
2019-02-24T12:41:39.656Z,21.88
2019-02-24T12:42:39.626Z,21.98
2019-02-24T12:43:39.609Z,22.08
2019-02-24T12:44:39.609Z,24.34
2019-02-24T12:45:39.581Z,22.92
2019-02-24T12:46:39.612Z,23.63
2019-02-24T12:47:39.569Z,21.57
2019-02-24T12:48:39.580Z,22.08
2019-02-24T12:49:39.573Z,21.77
2019-02-24T12:50:39.527Z,21.36
2019-02-24T12:51:39.533Z,20.54
2019-02-24T12:52:39.552Z,21.06